Terminal Aerodrome Forecast
Issued by NWS

Current Version | Previous Version | Graphics & Text | Print | Product List | Glossary On
Versions: 1 2 3 4 5 6 7 8 9 10 11 12 13 14 15 16 17
000
FTUS41 KRNK 201129
TAFLWB
TAF
KLWB 201129Z 2012/2112 08004KT 5SM -RA BR SCT015 OVC030
      TEMPO 2012/2014 2SM RA BR OVC015
     FM201500 00000KT 3SM -RA BR OVC007
      TEMPO 2015/2017 OVC003
     FM201700 00000KT 5SM BR OVC015
     FM202000 22004KT P6SM BKN030=

USA.gov is the U.S. government's official web portal to all federal, state and local government web resources and services.